Valle Toledo, Valles Caldera, New Mexico Weather observations

Data are for 10 minute period ending at time listed.
 Day   Time   Solar   Ave.   Ave.  Ave.  Vector  Max.   Baro.   Total    
  of    of     Rad.   Air    Rel.  Wind   Wind   Wind  Press.  Precip.   
Year   Day            Temp.  Hum.  Speed  Dir.   Gust                    
2026   (MST)  Kw/m2    F      %     mph   deg.    mph    mb.     in.     
-------------------------------------------------------------------------
 242    1:30   0.00   52.2    84    0.0     0     0.0   738.1    0.01 
 242    1:40   0.00   52.2    84    0.0     0     0.0   738.1    0.00 
 242    1:50   0.00   52.4    82    0.0     0     0.0   737.9    0.00 
 242    2:00   0.00   52.8    80    0.0     0     0.0   737.8    0.00 
 242    2:10   0.00   52.2    83    0.0     0     0.0   737.7    0.00 
 242    2:20   0.00   52.4    82    0.0     0     0.0   737.6    0.00 
 242    2:30   0.00   52.0    84    0.0     0     0.0   737.7    0.00 
 242    2:40   0.00   51.7    84    0.0     0     0.0   737.7    0.00 
 242    2:50   0.00   51.6    84    0.0     0     0.0   737.6    0.00 
 242    3:00   0.00   51.7    84    0.0     0     0.0   737.5    0.00 
 242    3:10   0.00   51.9    81    0.0     0     0.0   737.5    0.00 
 242    3:20   0.00   51.8    81    0.0     0     0.0   737.5    0.00 
 242    3:30   0.00   51.8    80    0.0     0     0.0   737.5    0.00 
 242    3:40   0.00   51.9    80    0.0     0     0.0   737.5    0.00 
 242    3:50   0.00   52.0    77    0.0     0     0.0   737.7    0.00 
 242    4:00   0.00   52.1    77    0.0     0     0.0   737.7    0.00 
 242    4:10   0.00   52.2    76    0.0     0     0.0   737.7    0.00 
 242    4:20   0.00   52.5    74    0.0     0     0.0   737.6    0.00 
 242    4:30   0.00   52.8    74    0.0     0     0.0   737.6    0.00 
 242    4:40   0.00   52.3    75    0.0     0     0.0   737.6    0.00 
 242    4:50   0.00   52.2    74    0.0     0     0.0   737.6    0.00 
 242    5:00   0.00   52.0    74    0.0     0     0.0   737.7    0.00 
 242    5:10   0.00   52.3    72    0.0     0     0.0   737.8    0.00 
 242    5:20   0.00   53.3    70    0.0     0     0.0   737.8    0.00 
 242    5:30   0.00   54.5    68    0.0     0     0.0   737.8    0.00 
 242    5:40   0.01   53.1    74    0.0     0     0.0   737.8    0.00 
 242    5:50   0.01   53.5    72    0.0     0     0.0   737.9    0.00 
 242    6:00   0.02   53.5    73    0.0     0     0.0   738.0    0.00 
 242    6:10   0.03   53.7    73    0.0     0     0.0   738.0    0.00 
 242    6:20   0.02   54.3    73    0.0     0     0.0   738.1    0.00 
 242    6:30   0.03   54.0    74    0.0     0     0.0   738.1    0.00 
 242    6:40   0.04   54.2    73    0.0     0     0.0   738.2    0.00 
 242    6:50   0.05   53.6    77    0.0     0     0.0   738.3    0.00 
 242    7:00   0.06   52.9    79    0.0     0     0.0   738.4    0.00 
 242    7:10   0.12   54.4    76    0.0     0     0.0   738.5    0.00 
 242    7:20   0.11   56.1    69    0.0     0     0.0   738.5    0.00 
 242    7:30   0.18   57.6    66    0.0     0     0.0   738.4    0.00 
 242    7:40   0.19   59.6    59    0.0     0     0.0   738.4    0.00 
 242    7:50   0.31   61.2    56    0.0     0     0.0   738.3    0.00 
 242    8:00   0.50   63.4    49    0.0     0     0.0   738.3    0.00 
 242    8:10   0.31   63.6    50    0.0     0     0.0   738.4    0.00 
 242    8:20   0.29   61.6    53    0.0     0     0.0   738.4    0.00 
 242    8:30   0.30   61.2    54    0.0     0     0.0   738.4    0.00 
 242    8:40   0.33   61.5    54    0.0     0     0.0   738.5    0.00 
 242    8:50   0.36   61.8    54    0.0     0     0.0   738.6    0.00 
 242    9:00   0.80   62.5    53    0.0     0     0.0   738.7    0.00 
 242    9:10   0.88   64.7    51    0.0     0     0.0   738.5    0.00 
 242    9:20   0.72   65.2    51    0.0     0     0.0   738.6    0.00 
 242    9:30   0.91   65.2    51    5.1    90    11.9   738.6    0.00 
 242    9:40   0.79   65.9    49    6.6   115    12.5   738.6    0.00 
 242    9:50   0.83   65.9    49    6.3   118    12.5   738.6    0.00 
 242   10:00   0.86   66.2    47    7.2   102    15.5   738.6    0.00 
 242   10:10   0.31   64.6    49    2.9    77    10.2   738.6    0.00 
 242   10:20   0.43   63.9    50    2.2    69    10.8   738.7    0.00 
 242   10:30   0.32   63.9    51    3.1    74    10.8   738.6    0.00 
 242   10:40   0.42   64.5    50    1.4    94     6.6   738.7    0.00 
 242   10:50   0.78   65.5    48    0.0     0     0.0   738.6    0.00 
 242   11:00   0.95   66.9    44    2.5    86     9.6   738.5    0.00 
 242   11:10   0.62   67.1    43    0.0     0     0.0   738.3    0.00 
 242   11:20   0.60   66.8    44    0.0     0     0.0   738.2    0.00 
 242   11:30   0.54   67.3    42    0.0     0     0.0   738.0    0.00 
 242   11:40   0.88   69.5    38    0.0     0     0.0   737.8    0.00 
 242   11:50   0.74   69.7    36    0.0     0     0.0   737.7    0.00 
 242   12:00   0.82   70.6    34    0.0     0     0.0   737.6    0.00 
 242   12:10   0.80   70.7    33    0.0     0     0.0   737.7    0.00 
 242   12:20   0.67   71.4    32    0.0     0     0.0   737.7    0.00 
 242   12:30   0.75   71.3    32    0.0     0     0.0   737.5    0.00 
 242   12:40   0.87   71.4    33    0.0     0     0.0   737.5    0.00 
 242   12:50   0.56   71.4    34    0.0     0     0.0   737.5    0.00 
 242   13:00   0.72   71.6    34    0.0     0     0.0   737.5    0.00 
 242   13:10   0.28   71.0    34    0.4   345     4.8   737.3    0.00 
 242   13:20   0.27   69.5    36    0.0     0     0.0   737.3    0.00 
 242   13:30   0.49   69.9    35    0.0     0     0.0   737.2    0.00 
 242   13:40   0.72   71.7    31    1.8    99    12.5   737.2    0.00 
 242   13:50   0.77   71.6    30    1.2    82    11.3   737.1    0.00 
 242   14:00   0.82   73.0    30    5.6    85    12.5   736.9    0.00 
 242   14:10   0.74   72.9    30    4.9    44    10.2   736.7    0.00 
 242   14:20   0.75   72.5    31    2.5    94     9.6   736.6    0.00 
 242   14:30   0.74   73.2    30    6.0   107    10.8   736.6    0.00 
 242   14:40   0.86   73.6    29    6.2    94    10.8   736.5    0.00 
 242   14:50   0.64   73.3    29    6.2   108    12.5   736.4    0.00 
 242   15:00   0.58   73.1    30    4.0    63    12.5   736.3    0.00 
 242   15:10   0.51   72.2    31    5.2    45    11.9   736.2    0.00 
 242   15:20   0.60   72.9    31    0.0    61     2.4   736.2    0.00 
 242   15:30   0.38   72.7    30    0.5    46     9.6   736.2    0.00 
 242   15:40   0.33   71.6    30    4.3    62    10.2   736.2    0.00 
 242   15:50   0.64   73.1    29    0.0     0     0.0   736.3    0.00 
 242   16:00   0.29   72.8    28    0.0     0     0.0   736.2    0.00 
 242   16:10   0.27   72.0    29    0.0     0     0.0   736.3    0.00 
 242   16:20   0.18   71.2    30    0.0     0     0.0   736.3    0.00 
 242   16:30   0.41   71.6    29    0.0     0     0.0   736.3    0.00 
 242   16:40   0.24   72.3    28    0.9    48    11.9   736.3    0.00 
 242   16:50   0.16   70.4    31    1.4    92     7.8   736.2    0.00 
 242   17:00   0.21   70.0    32    0.0     0     0.0   736.3    0.00 
 242   17:10   0.15   70.4    31    0.0     0     0.0   736.5    0.00 
 242   17:20   0.14   69.3    31    0.3    97     5.4   736.6    0.00 
 242   17:30   0.09   68.5    34    0.0     0     0.0   736.6    0.00 
 242   17:40   0.09   67.7    36    0.0     0     0.0   736.6    0.00 
 242   17:50   0.08   67.3    37    0.0     0     0.0   736.6    0.00 
 242   18:00   0.05   67.2    36    0.0     0     0.0   736.6    0.00 
 242   18:10   0.04   66.8    37    0.0     0     0.0   736.5    0.00 
 242   18:20   0.04   65.7    41    0.0     0     0.0   736.5    0.00 
 242   18:30   0.02   64.6    43    0.0     0     0.0   736.6    0.00 
 242   18:40   0.00   63.5    46    0.0     0     0.0   736.5    0.00 
 242   18:50   0.00   62.3    48    0.0     0     0.0   736.6    0.00 
 242   19:00   0.00   61.4    50    0.0     0     0.0   736.7    0.00 
 242   19:10   0.00   60.6    51    0.0     0     0.0   736.8    0.00 
 242   19:20   0.00   60.4    51    0.0     0     0.0   737.0    0.00 
 242   19:30   0.00   60.3    52    0.0     0     0.0   737.0    0.00 
 242   19:40   0.00   60.4    52    0.0     0     0.0   737.0    0.00 
 242   19:50   0.00   60.5    52    0.0     0     0.0   737.0    0.00 
 242   20:00   0.00   60.4    52    0.0     0     0.0   737.2    0.00 
 242   20:10   0.00   60.2    52    0.0     0     0.0   737.3    0.00 
 242   20:20   0.00   60.1    52    0.0     0     0.0   737.5    0.00 
 242   20:30   0.00   60.2    51    0.0     0     0.0   737.6    0.00 
 242   20:40   0.00   60.7    48    0.0     0     0.0   737.6    0.00 
 242   20:50   0.00   60.7    50    0.0     0     0.0   737.7    0.00 
 242   21:00   0.00   60.5    50    0.0     0     0.0   737.7    0.00 
 242   21:10   0.00   60.4    50    0.0     0     0.0   737.6    0.00 
 242   21:20   0.00   60.3    49    0.0     0     0.0   737.4    0.00 
 242   21:30   0.00   60.6    47    0.0     0     0.0   737.3    0.00 
 242   21:40   0.00   59.6    55    0.0     0     0.0   737.2    0.00 
 242   21:50   0.00   58.8    52    0.0     0     0.0   737.0    0.00 
 242   22:00   0.00   59.8    49    0.0     0     0.0   737.1    0.00 
 242   22:10   0.00   59.2    53    0.0     0     0.0   737.4    0.00 
 242   22:20   0.00   58.7    53    0.0     0     0.0   737.3    0.00 
 242   22:30   0.00   58.9    51    0.0     0     0.0   737.2    0.00 
 242   22:40   0.00   58.9    51    0.0     0     0.0   737.4    0.00 
 242   22:50   0.00   59.5    47    3.2   166     9.6   737.4    0.00 
 242   23:00   0.00   59.4    49    5.4   170    12.5   737.4    0.00 
 242   23:10   0.00   58.7    52    1.8   174     9.6   737.3    0.00 
 242   23:20   0.00   58.7    52    0.0     0     0.0   737.3    0.00 
 242   23:30   0.00   59.2    51    0.0     0     0.0   737.5    0.00 
 242   23:40   0.00   58.3    54    0.0     0     0.0   737.5    0.00 
 242   23:50   0.00   57.7    56    0.0     0     0.0   737.5    0.00 
 243    0:00   0.00   57.2    57    0.0     0     0.0   737.5    0.00 
 243    0:10   0.00   56.9    58    0.0     0     0.0   737.6    0.00 
 243    0:20   0.00   56.8    58    0.0     0     0.0   737.6    0.00 
 243    0:30   0.00   57.1    58    0.0     0     0.0   737.6    0.00 
 243    0:40   0.00   57.6    56    0.0     0     0.0   737.5    0.00 
 243    0:50   0.00   58.4    54    0.0     0     0.0   737.4    0.00 
 243    1:00   0.00   58.4    54    0.0     0     0.0   737.3    0.00 
 243    1:10   0.00   57.6    56    0.0     0     0.0   737.3    0.00 
 243    1:20   0.00   58.0    55    0.0     0     0.0   737.3    0.00 

Return to Valle Toledo, Valles Caldera graphs page.


Western Regional Climate Center,wrcc@dri.edu